»·PEaware :: FDX3171 KGJT-KSLC

FDX3171 :: KGJT-KSLC

FLIGHT INFORMATION

Flight Status: Arrived
Operator:
Federal Express
More flights by this operator :: More flights under this callsign
Pilot: David C. (16084)
Aircraft: BOEING 767-300
(B763)
More flights by this aircraft type
Origin: KGJT Walker
United States
Destination: KSLC Salt Lake City Intl
United States
More flights between these airports :: More routes between these airports
Route: RHONE2 JNC J12 HELPR LEEHY5
File this flight plan on PilotEdge
Remarks: PBN / A1B1C1D1L1O1 DOF / 171013 REG / FDX3171 EET / KZLC0016 OPR / FDX RMK / TCAS SIMBRIEF
Altitude:
(Current/Filed)
28,000ft
Speed:
(Current/Filed)
505kts
Departed: 13-Oct-17 12:55 PM
Arrived: 13-Oct-17 01:35 PM
Distance/Time
Traveled:
188nm/0:40
Distance/Time
To Go:
Arrived

Flight Plot

Page will automatically refresh every two minutes.

Flight plan parsing failed; only flown route is shown


Map Options




Map Legend


Flown Route
Filed Route
Departure Airport
Arrival Airport
Navaid (VOR, NDB)
Fix

Horizontal Profiles

Position Reports

Time Latitude Longitude Heading Altitude Ground
Speed
13-Oct-17 12:35 39.122350 -108.526760 213 4843ft 0kts
13-Oct-17 12:36 39.122350 -108.526760 213 4843ft 0kts
13-Oct-17 12:37 39.122350 -108.526760 213 4843ft 0kts
13-Oct-17 12:38 39.122350 -108.526760 213 4843ft 0kts
13-Oct-17 12:39 39.122350 -108.526760 213 4843ft 0kts
13-Oct-17 12:40 39.122350 -108.526760 213 4843ft 0kts
13-Oct-17 12:41 39.122350 -108.526760 213 4843ft 0kts
13-Oct-17 12:42 39.122350 -108.526760 213 4843ft 0kts
13-Oct-17 12:43 39.122350 -108.526760 213 4843ft 0kts
13-Oct-17 12:44 39.122350 -108.526760 213 4843ft 0kts
13-Oct-17 12:45 39.122350 -108.526760 213 4843ft 0kts
13-Oct-17 12:46 39.122350 -108.526760 213 4843ft 0kts
13-Oct-17 12:47 39.122350 -108.526760 213 4843ft 0kts
13-Oct-17 12:48 39.122350 -108.526760 213 4843ft 0kts
13-Oct-17 12:49 39.122350 -108.526760 213 4843ft 0kts
13-Oct-17 12:50 39.122350 -108.526760 213 4843ft 0kts
13-Oct-17 12:51 39.122350 -108.526760 213 4843ft 0kts
13-Oct-17 12:52 39.122349 -108.526760 213 4843ft 0kts
13-Oct-17 12:53 39.122349 -108.526760 213 4843ft 0kts
13-Oct-17 12:54 39.122349 -108.526760 213 4843ft 0kts
13-Oct-17 12:55 39.122505 -108.526741 203 4844ft 2kts
13-Oct-17 12:56 39.122943 -108.526855 114 4845ft 0kts
13-Oct-17 12:57 39.122944 -108.526855 115 4845ft 0kts
13-Oct-17 12:58 39.122944 -108.526855 115 4845ft 0kts
13-Oct-17 12:59 39.122859 -108.526260 82 4846ft 10kts
13-Oct-17 13:00 39.119401 -108.518435 124 4852ft 44kts
13-Oct-17 13:01 39.118399 -108.516589 124 4854ft 0kts
13-Oct-17 13:02 39.118568 -108.514843 348 4858ft 14kts
13-Oct-17 13:03 39.135373 -108.544793 304 5164ft 220kts
13-Oct-17 13:04 39.167700 -108.619343 260 7486ft 246kts
13-Oct-17 13:05 39.130589 -108.689248 228 11460ft 243kts
13-Oct-17 13:06 39.086432 -108.753855 228 15116ft 242kts
13-Oct-17 13:07 39.076626 -108.832227 288 18260ft 265kts
13-Oct-17 13:08 39.112187 -108.922125 288 20649ft 296kts
13-Oct-17 13:09 39.150228 -109.016341 286 23591ft 300kts
13-Oct-17 13:10 39.188880 -109.112295 285 26207ft 305kts
13-Oct-17 13:10 39.221464 -109.193425 285 28164ft 310kts
13-Oct-17 13:11 39.265102 -109.302912 287 28240ft 377kts
13-Oct-17 13:13 39.326419 -109.456511 288 28195ft 435kts
13-Oct-17 13:14 39.381344 -109.594553 288 28156ft 433kts
13-Oct-17 13:14 39.425809 -109.707018 287 28170ft 432kts
13-Oct-17 13:15 39.480185 -109.845128 287 28166ft 432kts
13-Oct-17 13:17 39.543497 -110.006723 287 28181ft 431kts
13-Oct-17 13:18 39.597429 -110.145075 287 28205ft 431kts
13-Oct-17 13:18 39.642306 -110.260672 287 28207ft 431kts
13-Oct-17 13:19 39.695879 -110.399274 287 28206ft 431kts
13-Oct-17 13:20 39.749494 -110.538618 287 28204ft 430kts
13-Oct-17 13:21 39.801427 -110.674100 286 27367ft 408kts
13-Oct-17 13:22 39.851487 -110.805579 287 25762ft 402kts
13-Oct-17 13:23 39.900707 -110.935343 287 24056ft 398kts
13-Oct-17 13:24 39.948619 -111.062161 288 22313ft 391kts
13-Oct-17 13:25 39.996141 -111.188490 289 20649ft 385kts
13-Oct-17 13:26 40.042725 -111.312843 290 19052ft 380kts
13-Oct-17 13:27 40.088693 -111.436066 291 17453ft 376kts
13-Oct-17 13:28 40.133783 -111.557436 291 15922ft 371kts
13-Oct-17 13:29 40.179117 -111.677882 298 15260ft 373kts
13-Oct-17 13:30 40.250535 -111.778439 310 13704ft 373kts
13-Oct-17 13:31 40.326933 -111.868007 319 12151ft 369kts
13-Oct-17 13:32 40.414703 -111.930308 351 11026ft 367kts
13-Oct-17 13:33 40.504158 -111.941711 352 9607ft 280kts
13-Oct-17 13:34 40.578786 -111.950435 352 7629ft 250kts
13-Oct-17 13:35 40.641260 -111.957663 352 6055ft 195kts
13-Oct-17 13:36 40.689562 -111.963281 352 5932ft 173kts
13-Oct-17 13:37 40.734980 -111.968537 352 5020ft 156kts
13-Oct-17 13:38 40.776831 -111.973380 353 4265ft 147kts
13-Oct-17 13:39 40.792063 -111.976059 322 4238ft 0kts
13-Oct-17 13:40 40.792063 -111.976059 322 4238ft 0kts
13-Oct-17 13:41 40.794581 -111.978603 354 4238ft 31kts
13-Oct-17 13:42 40.803708 -111.979843 350 4238ft 35kts
13-Oct-17 13:43 40.805386 -111.982507 175 4238ft 0kts

Navigation Log

Ident Type
Flight plan parsing failed, navigation log unavailable